createdAt,value
2023-04-18T00:00:33.043Z,8.60
2023-04-18T00:01:34.802Z,8.60
2023-04-18T00:02:38.539Z,8.60
2023-04-18T00:03:40.574Z,8.60
2023-04-18T00:04:42.285Z,8.70
2023-04-18T00:05:47.506Z,8.70
2023-04-18T00:06:49.974Z,8.70
2023-04-18T00:07:52.782Z,8.70
2023-04-18T00:08:54.389Z,8.60
2023-04-18T00:09:56.107Z,8.70
2023-04-18T00:10:57.658Z,8.70
2023-04-18T00:11:59.379Z,8.70
2023-04-18T00:13:01.031Z,8.70
2023-04-18T00:14:03.405Z,8.70
2023-04-18T00:15:07.309Z,8.60
2023-04-18T00:16:09.047Z,8.60
2023-04-18T00:17:11.217Z,8.70
2023-04-18T00:18:17.424Z,8.70
2023-04-18T00:19:20.175Z,8.60
2023-04-18T00:20:22.100Z,8.70
2023-04-18T00:21:25.802Z,8.70
2023-04-18T00:22:28.272Z,8.70
2023-04-18T00:23:30.577Z,8.70
2023-04-18T00:24:32.104Z,8.70
2023-04-18T00:25:34.043Z,8.80
2023-04-18T00:26:35.560Z,8.70
2023-04-18T00:27:38.341Z,8.80
2023-04-18T00:28:39.901Z,8.70
2023-04-18T00:29:42.788Z,8.70
2023-04-18T00:30:44.418Z,8.60
2023-04-18T00:31:46.572Z,8.60
2023-04-18T00:32:48.373Z,8.50
2023-04-18T00:33:50.358Z,8.50
2023-04-18T00:34:51.821Z,8.40
2023-04-18T00:35:54.182Z,8.40
2023-04-18T00:36:56.136Z,8.40
2023-04-18T00:37:58.478Z,8.40
2023-04-18T00:39:00.803Z,8.40
2023-04-18T00:40:02.362Z,8.40
2023-04-18T00:41:04.014Z,8.40
2023-04-18T00:42:06.175Z,8.30
2023-04-18T00:43:08.642Z,8.30
2023-04-18T00:44:10.235Z,8.30
2023-04-18T00:45:11.859Z,8.20
2023-04-18T00:46:13.721Z,8.20
2023-04-18T00:47:17.391Z,8.20
2023-04-18T00:48:19.091Z,8.20
2023-04-18T00:49:21.494Z,8.20
2023-04-18T00:50:24.192Z,8.20
2023-04-18T00:51:26.291Z,8.20
2023-04-18T00:52:28.189Z,8.10
2023-04-18T00:53:30.866Z,8.10
2023-04-18T00:54:32.649Z,8.10
2023-04-18T00:55:35.029Z,8.10
2023-04-18T00:56:37.730Z,8.00
2023-04-18T00:57:39.598Z,7.90
2023-04-18T00:58:41.370Z,7.80
2023-04-18T00:59:43.396Z,7.80
2023-04-18T01:00:44.958Z,7.80
2023-04-18T01:01:47.773Z,7.80
2023-04-18T01:02:53.241Z,7.80
2023-04-18T01:03:55.384Z,7.60
2023-04-18T01:04:58.753Z,7.60
2023-04-18T01:06:01.398Z,7.60
2023-04-18T01:07:03.367Z,7.70
2023-04-18T01:08:05.072Z,7.70
2023-04-18T01:09:09.992Z,7.60
2023-04-18T01:10:11.634Z,7.70
2023-04-18T01:11:13.151Z,7.80
2023-04-18T01:12:15.000Z,7.80
2023-04-18T01:13:19.687Z,7.80
2023-04-18T01:14:21.749Z,7.80
2023-04-18T01:15:23.868Z,7.80
2023-04-18T01:16:27.148Z,7.80
2023-04-18T01:17:29.687Z,7.90
2023-04-18T01:18:35.121Z,7.90
2023-04-18T01:19:42.664Z,7.90
2023-04-18T01:20:47.538Z,7.90
2023-04-18T01:21:49.654Z,7.80
2023-04-18T01:22:51.604Z,7.80
2023-04-18T01:23:53.850Z,7.80
2023-04-18T01:24:56.080Z,7.70
2023-04-18T01:25:57.804Z,7.70
2023-04-18T01:27:01.832Z,7.70
2023-04-18T01:28:04.658Z,7.70
2023-04-18T01:29:06.831Z,7.70
2023-04-18T01:30:09.230Z,7.60
2023-04-18T01:31:11.071Z,7.50
2023-04-18T01:32:12.913Z,7.60
2023-04-18T01:33:14.388Z,7.50
2023-04-18T01:34:18.118Z,7.50
2023-04-18T01:35:19.756Z,7.50
2023-04-18T01:36:21.407Z,7.40
2023-04-18T01:37:23.021Z,7.50
2023-04-18T01:38:25.240Z,7.50
2023-04-18T01:39:28.964Z,7.50
2023-04-18T01:40:30.482Z,7.50
2023-04-18T01:41:32.976Z,7.40
2023-04-18T01:42:34.737Z,7.40
2023-04-18T01:43:36.566Z,7.50
2023-04-18T01:44:38.515Z,7.40
2023-04-18T01:45:40.883Z,7.40
2023-04-18T01:46:43.646Z,7.40
2023-04-18T01:47:45.379Z,7.40
2023-04-18T01:48:47.116Z,7.40
2023-04-18T01:49:48.765Z,7.40
2023-04-18T01:50:50.578Z,7.40
2023-04-18T01:51:52.087Z,7.40
2023-04-18T01:52:56.161Z,7.50
2023-04-18T01:53:58.301Z,7.50
2023-04-18T01:55:02.089Z,7.50
2023-04-18T01:56:03.804Z,7.40
2023-04-18T01:57:05.603Z,7.40
2023-04-18T01:58:07.182Z,7.40
2023-04-18T01:59:10.157Z,7.40
2023-04-18T02:00:12.257Z,7.40
2023-04-18T02:01:16.866Z,7.40
2023-04-18T02:02:18.534Z,7.40
2023-04-18T02:03:21.036Z,7.40
2023-04-18T02:04:23.124Z,7.40
2023-04-18T02:05:27.075Z,7.40
2023-04-18T02:06:28.685Z,7.40
2023-04-18T02:07:30.461Z,7.40
2023-04-18T02:08:35.969Z,7.40
2023-04-18T02:09:39.558Z,7.30
2023-04-18T02:10:41.977Z,7.30
2023-04-18T02:11:44.043Z,7.30
2023-04-18T02:12:45.745Z,7.30
2023-04-18T02:13:47.278Z,7.20
2023-04-18T02:14:52.905Z,7.20
2023-04-18T02:15:54.518Z,7.30
2023-04-18T02:16:56.701Z,7.30
2023-04-18T02:18:00.063Z,7.20
2023-04-18T02:19:04.336Z,7.20
2023-04-18T02:20:08.297Z,7.20
2023-04-18T02:21:11.258Z,7.20
2023-04-18T02:22:13.573Z,7.10
2023-04-18T02:23:15.163Z,7.10
2023-04-18T02:24:17.456Z,7.00
2023-04-18T02:25:19.268Z,7.10
2023-04-18T02:26:22.963Z,7.10
2023-04-18T02:27:24.658Z,7.10
2023-04-18T02:28:31.204Z,7.10
2023-04-18T02:29:32.914Z,7.10
2023-04-18T02:30:34.614Z,7.10
2023-04-18T02:31:41.766Z,7.00
2023-04-18T02:32:44.054Z,7.00
2023-04-18T02:33:47.802Z,7.00
2023-04-18T02:34:49.460Z,7.00
2023-04-18T02:35:51.332Z,7.00
2023-04-18T02:36:53.294Z,7.10
2023-04-18T02:37:54.823Z,7.00
2023-04-18T02:38:56.480Z,6.90
2023-04-18T02:39:57.991Z,6.90
2023-04-18T02:41:04.254Z,6.90
2023-04-18T02:42:05.865Z,6.90
2023-04-18T02:43:07.394Z,6.90
2023-04-18T02:44:09.608Z,6.90
2023-04-18T02:45:13.797Z,7.00
2023-04-18T02:46:15.898Z,7.00
2023-04-18T02:47:20.282Z,7.00
2023-04-18T02:48:25.107Z,7.00
2023-04-18T02:49:26.914Z,7.00
2023-04-18T02:50:29.842Z,7.00
2023-04-18T02:51:32.394Z,7.00
2023-04-18T02:52:35.184Z,7.00
2023-04-18T02:53:37.045Z,7.10
2023-04-18T02:54:39.461Z,7.10
2023-04-18T02:55:45.645Z,7.10
2023-04-18T02:56:47.418Z,7.10
2023-04-18T02:57:59.685Z,7.20
2023-04-18T02:59:19.651Z,7.20
2023-04-18T03:00:46.422Z,7.20
2023-04-18T03:02:02.466Z,7.20
2023-04-18T03:03:05.606Z,7.20
2023-04-18T03:04:14.714Z,7.30
2023-04-18T03:05:20.024Z,7.30
2023-04-18T03:06:21.771Z,7.30
2023-04-18T03:07:23.627Z,7.40
2023-04-18T03:08:26.447Z,7.30
2023-04-18T03:09:28.193Z,7.40
2023-04-18T03:10:34.897Z,7.30
2023-04-18T03:11:36.835Z,7.30
2023-04-18T03:12:39.268Z,7.30
2023-04-18T03:13:41.045Z,7.30
2023-04-18T03:14:44.520Z,7.30
2023-04-18T03:15:48.433Z,7.30
2023-04-18T03:16:52.985Z,7.30
2023-04-18T03:17:59.356Z,7.30
2023-04-18T03:19:05.266Z,7.30
2023-04-18T03:20:08.051Z,7.30
2023-04-18T03:21:10.385Z,7.30
2023-04-18T03:22:14.004Z,7.30
2023-04-18T03:23:30.016Z,7.30
2023-04-18T03:24:33.024Z,7.40
2023-04-18T03:25:37.524Z,7.30
2023-04-18T03:26:40.363Z,7.40
2023-04-18T03:27:43.605Z,7.40
2023-04-18T03:28:47.194Z,7.40
2023-04-18T03:29:49.248Z,7.40
2023-04-18T03:30:51.076Z,7.40
2023-04-18T03:31:53.032Z,7.40
2023-04-18T03:32:56.358Z,7.40
2023-04-18T03:33:58.130Z,7.40
2023-04-18T03:34:59.756Z,7.40
2023-04-18T03:36:01.545Z,7.40
2023-04-18T03:37:03.595Z,7.40
2023-04-18T03:38:09.770Z,7.40
2023-04-18T03:39:13.914Z,7.40
2023-04-18T03:40:15.623Z,7.40
2023-04-18T03:41:17.147Z,7.40
2023-04-18T03:42:18.726Z,7.40
2023-04-18T03:43:21.092Z,7.30
2023-04-18T03:44:22.961Z,7.30
2023-04-18T03:45:25.263Z,7.30
2023-04-18T03:46:27.030Z,7.30
2023-04-18T03:47:31.748Z,7.30
2023-04-18T03:48:37.299Z,7.30
2023-04-18T03:49:43.332Z,7.30
2023-04-18T03:50:45.013Z,7.30
2023-04-18T03:51:48.093Z,7.30
2023-04-18T03:52:49.961Z,7.30
2023-04-18T03:53:52.704Z,7.30
2023-04-18T03:54:54.516Z,7.30
2023-04-18T03:56:00.058Z,7.40
2023-04-18T03:57:15.671Z,7.40
2023-04-18T03:58:18.053Z,7.40
2023-04-18T03:59:20.005Z,7.40
2023-04-18T04:00:25.313Z,7.40
2023-04-18T04:01:34.170Z,7.40
2023-04-18T04:02:36.773Z,7.40
2023-04-18T04:03:38.874Z,7.40
2023-04-18T04:04:41.079Z,7.40
2023-04-18T04:05:44.750Z,7.40
2023-04-18T04:06:46.921Z,7.40
2023-04-18T04:07:48.550Z,7.50
2023-04-18T04:08:50.255Z,7.50
2023-04-18T04:09:55.889Z,7.50
2023-04-18T04:10:57.469Z,7.50
2023-04-18T04:11:59.338Z,7.50
2023-04-18T04:13:02.669Z,7.50
2023-04-18T04:14:06.519Z,7.50
2023-04-18T04:15:13.657Z,7.50
2023-04-18T04:16:21.636Z,7.50
2023-04-18T04:17:25.897Z,7.50
2023-04-18T04:18:30.914Z,7.50
2023-04-18T04:19:34.536Z,7.50
2023-04-18T04:20:46.494Z,7.40
2023-04-18T04:21:54.541Z,7.40
2023-04-18T04:22:59.009Z,7.40
2023-04-18T04:24:01.809Z,7.40
2023-04-18T04:25:13.850Z,7.40
2023-04-18T04:26:17.367Z,7.40
2023-04-18T04:27:27.010Z,7.30
2023-04-18T04:28:31.285Z,7.30
2023-04-18T04:29:38.707Z,7.30
2023-04-18T04:30:41.740Z,7.30
2023-04-18T04:31:43.809Z,7.30
2023-04-18T04:32:45.672Z,7.30
2023-04-18T04:33:47.344Z,7.30
2023-04-18T04:34:53.668Z,7.20
2023-04-18T04:35:56.788Z,7.20
2023-04-18T04:37:00.820Z,7.20
2023-04-18T04:38:03.790Z,7.30
2023-04-18T04:39:12.916Z,7.30
2023-04-18T04:40:35.391Z,7.30
2023-04-18T04:41:44.476Z,7.30
2023-04-18T04:42:49.188Z,7.30
2023-04-18T04:43:56.974Z,7.30
2023-04-18T04:45:03.703Z,7.40
2023-04-18T04:46:07.822Z,7.30
2023-04-18T04:47:09.425Z,7.30
2023-04-18T04:48:13.296Z,7.30
2023-04-18T04:49:16.262Z,7.20
2023-04-18T04:50:19.016Z,7.20
2023-04-18T04:51:20.650Z,7.20
2023-04-18T04:52:22.236Z,7.30
2023-04-18T04:53:25.695Z,7.20
2023-04-18T04:54:27.890Z,7.30
2023-04-18T04:55:29.818Z,7.30
2023-04-18T04:56:32.326Z,7.30
2023-04-18T04:57:34.160Z,7.30
2023-04-18T04:58:37.332Z,7.30
2023-04-18T05:00:09.455Z,7.20
2023-04-18T05:01:11.586Z,7.20
2023-04-18T05:02:15.063Z,7.20
2023-04-18T05:03:17.010Z,7.20
2023-04-18T05:04:19.378Z,7.20
2023-04-18T05:05:21.565Z,7.20
2023-04-18T05:06:23.978Z,7.20
2023-04-18T05:07:25.762Z,7.30
2023-04-18T05:08:27.278Z,7.30
2023-04-18T05:09:28.709Z,7.30
2023-04-18T05:10:30.681Z,7.30
2023-04-18T05:11:32.367Z,7.40
2023-04-18T05:12:33.902Z,7.40
2023-04-18T05:13:35.473Z,7.40
2023-04-18T05:14:36.925Z,7.40
2023-04-18T05:15:39.468Z,7.40
2023-04-18T05:16:41.557Z,7.30
2023-04-18T05:17:43.024Z,7.30
2023-04-18T05:18:44.408Z,7.40
2023-04-18T05:19:46.012Z,7.40
2023-04-18T05:20:47.792Z,7.40
2023-04-18T05:21:49.169Z,7.30
2023-04-18T05:22:51.217Z,7.20
2023-04-18T05:23:52.578Z,7.20
2023-04-18T05:24:54.074Z,7.20
2023-04-18T05:25:56.147Z,7.20
2023-04-18T05:26:57.665Z,7.20
2023-04-18T05:28:01.151Z,7.30
2023-04-18T05:29:02.555Z,7.20
2023-04-18T05:30:04.406Z,7.20
2023-04-18T05:31:05.986Z,7.20
2023-04-18T05:32:07.689Z,7.20
2023-04-18T05:33:09.166Z,7.20
2023-04-18T05:34:10.765Z,7.20
2023-04-18T05:35:12.333Z,7.20
2023-04-18T05:36:13.792Z,7.10
2023-04-18T05:37:15.431Z,7.20
2023-04-18T05:38:16.880Z,7.10
2023-04-18T05:39:18.393Z,7.20
2023-04-18T05:40:19.812Z,7.10
2023-04-18T05:41:21.229Z,7.10
2023-04-18T05:42:23.390Z,7.10
2023-04-18T05:43:24.807Z,7.10
2023-04-18T05:44:26.215Z,7.10
2023-04-18T05:45:27.615Z,7.10
2023-04-18T05:46:29.361Z,7.10
2023-04-18T05:47:31.006Z,7.10
2023-04-18T05:48:32.715Z,7.10
2023-04-18T05:49:34.559Z,7.00
2023-04-18T05:50:36.102Z,7.00
2023-04-18T05:51:37.676Z,7.00
2023-04-18T05:52:39.301Z,7.00
2023-04-18T05:53:40.695Z,7.00
2023-04-18T05:54:42.028Z,7.00
2023-04-18T05:55:43.918Z,7.00
2023-04-18T05:56:45.478Z,7.00
2023-04-18T05:57:46.878Z,7.00
2023-04-18T05:58:48.969Z,7.00
2023-04-18T05:59:50.513Z,7.00
2023-04-18T06:00:53.063Z,7.00
2023-04-18T06:01:54.694Z,7.00
2023-04-18T06:02:56.497Z,7.00
2023-04-18T06:03:58.397Z,7.00
2023-04-18T06:05:01.518Z,7.10
2023-04-18T06:06:03.333Z,7.10
2023-04-18T06:07:04.935Z,7.10
2023-04-18T06:08:07.444Z,7.10
2023-04-18T06:09:08.919Z,7.00
2023-04-18T06:10:13.406Z,7.10
2023-04-18T06:11:15.419Z,7.10
2023-04-18T06:12:16.896Z,7.10
2023-04-18T06:13:18.273Z,7.10
2023-04-18T06:14:19.672Z,7.20
2023-04-18T06:15:21.150Z,7.20
2023-04-18T06:16:23.229Z,7.20
2023-04-18T06:17:24.754Z,7.20
2023-04-18T06:18:26.155Z,7.30
2023-04-18T06:19:27.899Z,7.30
2023-04-18T06:20:29.261Z,7.30
2023-04-18T06:21:30.879Z,7.40
2023-04-18T06:22:34.137Z,7.40
2023-04-18T06:23:35.650Z,7.40
2023-04-18T06:24:37.691Z,7.40
2023-04-18T06:25:41.729Z,7.50
2023-04-18T06:26:43.531Z,7.50
2023-04-18T06:27:45.052Z,7.50
2023-04-18T06:28:46.596Z,7.50
2023-04-18T06:29:48.094Z,7.50
2023-04-18T06:30:49.866Z,7.40
2023-04-18T06:31:52.348Z,7.50
2023-04-18T06:32:53.940Z,7.50
2023-04-18T06:33:55.401Z,7.50
2023-04-18T06:34:56.856Z,7.50
2023-04-18T06:35:58.465Z,7.60
2023-04-18T06:37:00.307Z,7.60
2023-04-18T06:38:01.834Z,7.50
2023-04-18T06:39:03.781Z,7.50
2023-04-18T06:40:05.929Z,7.40
2023-04-18T06:41:07.249Z,7.30
2023-04-18T06:42:08.872Z,7.30
2023-04-18T06:43:18.856Z,7.30
2023-04-18T06:44:20.370Z,7.20
2023-04-18T06:45:21.770Z,7.30
2023-04-18T06:46:23.806Z,7.40
2023-04-18T06:47:25.547Z,7.40
2023-04-18T06:48:27.021Z,7.40
2023-04-18T06:49:28.521Z,7.50
2023-04-18T06:50:30.543Z,7.60
2023-04-18T06:51:32.388Z,7.60
2023-04-18T06:52:33.993Z,7.70
2023-04-18T06:53:35.730Z,7.60
2023-04-18T06:54:37.135Z,7.60
2023-04-18T06:55:38.618Z,7.70
2023-04-18T06:56:40.109Z,7.70
2023-04-18T06:57:43.157Z,7.70
2023-04-18T06:58:44.791Z,7.60
2023-04-18T06:59:46.275Z,7.60
2023-04-18T07:00:51.850Z,7.70
2023-04-18T07:01:53.419Z,7.80
2023-04-18T07:02:55.431Z,7.70
2023-04-18T07:03:57.016Z,7.60
2023-04-18T07:04:58.508Z,7.70
2023-04-18T07:05:59.966Z,7.70
2023-04-18T07:07:03.831Z,7.60
2023-04-18T07:08:05.472Z,7.70
2023-04-18T07:09:06.823Z,7.70
2023-04-18T07:10:09.847Z,7.70
2023-04-18T07:11:13.294Z,7.70
2023-04-18T07:12:15.378Z,7.70
2023-04-18T07:13:16.755Z,7.70
2023-04-18T07:14:19.995Z,7.70
2023-04-18T07:15:21.712Z,7.80
2023-04-18T07:16:23.298Z,7.80
2023-04-18T07:17:24.684Z,7.90
2023-04-18T07:18:36.709Z,7.90
2023-04-18T07:19:41.157Z,8.00
2023-04-18T07:20:42.650Z,8.00
2023-04-18T07:21:45.941Z,8.00
2023-04-18T07:22:48.558Z,7.90
2023-04-18T07:23:50.038Z,7.90
2023-04-18T07:24:51.944Z,8.00
2023-04-18T07:25:54.002Z,8.00
2023-04-18T07:26:55.937Z,8.00
2023-04-18T07:27:57.334Z,8.00
2023-04-18T07:28:58.860Z,8.00
2023-04-18T07:30:00.411Z,8.20
2023-04-18T07:31:03.667Z,8.20
2023-04-18T07:32:08.030Z,8.10
2023-04-18T07:33:10.213Z,8.10
2023-04-18T07:34:12.075Z,8.10
2023-04-18T07:35:13.735Z,8.10
2023-04-18T07:36:15.252Z,8.10
2023-04-18T07:37:18.340Z,8.10
2023-04-18T07:38:19.979Z,8.10
2023-04-18T07:39:21.603Z,8.10
2023-04-18T07:40:23.048Z,8.10
2023-04-18T07:41:24.439Z,8.10
2023-04-18T07:42:26.158Z,8.20
2023-04-18T07:43:27.557Z,8.20
2023-04-18T07:44:29.168Z,8.20
2023-04-18T07:45:31.294Z,8.30
2023-04-18T07:46:34.052Z,8.30
2023-04-18T07:47:35.562Z,8.40
2023-04-18T07:48:36.987Z,8.40
2023-04-18T07:49:38.854Z,8.50
2023-04-18T07:50:40.778Z,8.40
2023-04-18T07:51:42.224Z,8.50
2023-04-18T07:52:47.762Z,8.40
2023-04-18T07:53:49.409Z,8.50
2023-04-18T07:54:51.161Z,8.50
2023-04-18T07:55:54.383Z,8.50
2023-04-18T07:56:56.611Z,8.60
2023-04-18T07:57:58.087Z,8.50
2023-04-18T07:58:59.549Z,8.50
2023-04-18T08:00:01.384Z,8.60
2023-04-18T08:01:15.276Z,8.60
2023-04-18T08:02:16.825Z,8.60
2023-04-18T08:03:18.886Z,8.70
2023-04-18T08:04:20.609Z,8.70
2023-04-18T08:05:22.569Z,8.80
2023-04-18T08:06:24.234Z,8.80
2023-04-18T08:07:26.239Z,8.80
2023-04-18T08:08:28.016Z,8.80
2023-04-18T08:09:29.385Z,8.90
2023-04-18T08:10:30.856Z,8.80
2023-04-18T08:11:33.637Z,8.80
2023-04-18T08:12:36.903Z,8.90
2023-04-18T08:13:38.500Z,9.00
2023-04-18T08:14:39.885Z,9.00
2023-04-18T08:15:41.460Z,8.90
2023-04-18T08:16:43.083Z,9.00
2023-04-18T08:17:45.470Z,9.10
2023-04-18T08:18:47.103Z,9.10
2023-04-18T08:19:48.815Z,9.00
2023-04-18T08:20:50.493Z,8.90
2023-04-18T08:21:52.160Z,9.00
2023-04-18T08:23:05.604Z,9.10
2023-04-18T08:24:09.337Z,9.10
2023-04-18T08:25:10.760Z,9.10
2023-04-18T08:26:12.503Z,9.20
2023-04-18T08:27:14.229Z,9.30
2023-04-18T08:28:15.804Z,9.10
2023-04-18T08:29:17.851Z,9.10
2023-04-18T08:30:19.641Z,9.10
2023-04-18T08:31:21.196Z,9.10
2023-04-18T08:32:22.751Z,9.20
2023-04-18T08:33:24.557Z,9.30
2023-04-18T08:34:26.012Z,9.30
2023-04-18T08:35:27.561Z,9.40
2023-04-18T08:36:29.149Z,9.30
2023-04-18T08:37:31.469Z,9.30
2023-04-18T08:38:32.843Z,9.30
2023-04-18T08:39:35.074Z,9.20
2023-04-18T08:40:37.974Z,9.10
2023-04-18T08:41:42.329Z,9.10
2023-04-18T08:42:44.921Z,9.10
2023-04-18T08:43:48.895Z,9.20
2023-04-18T08:44:51.833Z,9.30
2023-04-18T08:46:01.661Z,9.40
2023-04-18T08:47:03.617Z,9.40
2023-04-18T08:48:06.194Z,9.50
2023-04-18T08:49:08.531Z,9.50
2023-04-18T08:50:11.298Z,9.50
2023-04-18T08:51:13.005Z,9.40
2023-04-18T08:52:19.299Z,9.40
2023-04-18T08:53:21.112Z,9.30
2023-04-18T08:54:22.589Z,9.30
2023-04-18T08:55:24.410Z,9.40
2023-04-18T08:56:27.257Z,9.40
2023-04-18T08:57:30.054Z,9.60
2023-04-18T08:58:34.163Z,9.60
2023-04-18T08:59:36.204Z,9.60
2023-04-18T09:00:37.666Z,9.50
2023-04-18T09:01:56.972Z,9.50
2023-04-18T09:02:59.068Z,9.60
2023-04-18T09:04:00.780Z,9.50
2023-04-18T09:05:19.570Z,9.50
2023-04-18T09:06:21.042Z,9.40
2023-04-18T09:07:29.654Z,9.50
2023-04-18T09:08:31.036Z,9.50
2023-04-18T09:09:47.699Z,9.40
2023-04-18T09:10:50.416Z,9.60
2023-04-18T09:11:53.118Z,9.70
2023-04-18T09:12:55.392Z,9.70
2023-04-18T09:14:10.905Z,9.60
2023-04-18T09:15:15.519Z,9.60
2023-04-18T09:16:20.833Z,9.50
2023-04-18T09:17:35.612Z,9.40
2023-04-18T09:18:38.653Z,9.40
2023-04-18T09:19:50.296Z,9.40
2023-04-18T09:20:51.903Z,9.50
2023-04-18T09:21:59.096Z,9.50
2023-04-18T09:23:02.598Z,9.40
2023-04-18T09:24:21.160Z,9.50
2023-04-18T09:25:39.839Z,9.40
2023-04-18T09:26:43.475Z,9.40
2023-04-18T09:27:45.076Z,9.40
2023-04-18T09:28:53.923Z,9.50
2023-04-18T09:29:57.813Z,9.50
2023-04-18T09:31:17.362Z,9.50
2023-04-18T09:32:27.159Z,9.50
2023-04-18T09:33:33.234Z,9.50
2023-04-18T09:34:38.268Z,9.50
2023-04-18T09:35:39.789Z,9.50
2023-04-18T09:36:41.221Z,9.50
2023-04-18T09:37:51.256Z,9.50
2023-04-18T09:38:56.289Z,9.60
2023-04-18T09:39:58.240Z,9.60
2023-04-18T09:41:10.365Z,9.70
2023-04-18T09:42:12.961Z,9.70
2023-04-18T09:43:21.627Z,9.70
2023-04-18T09:44:23.006Z,9.70
2023-04-18T09:45:25.294Z,9.70
2023-04-18T09:46:28.430Z,9.70
2023-04-18T09:47:31.028Z,9.80
2023-04-18T09:48:32.790Z,9.90
2023-04-18T09:49:35.214Z,10.10
2023-04-18T09:50:39.088Z,10.10
2023-04-18T09:51:41.625Z,10.10
2023-04-18T09:52:44.680Z,10.10
2023-04-18T09:53:47.565Z,10.10
2023-04-18T09:54:54.992Z,10.10
2023-04-18T09:55:57.902Z,10.20
2023-04-18T09:57:00.958Z,10.30
2023-04-18T09:58:04.825Z,10.40
2023-04-18T09:59:10.307Z,10.40
2023-04-18T10:00:23.994Z,10.40
2023-04-18T10:01:29.640Z,10.20
2023-04-18T10:02:38.860Z,10.20
2023-04-18T10:03:47.175Z,10.10
2023-04-18T10:04:53.594Z,10.10
2023-04-18T10:05:57.782Z,10.10
2023-04-18T10:07:00.289Z,10.20
2023-04-18T10:08:02.861Z,10.10
2023-04-18T10:09:06.141Z,10.00
2023-04-18T10:10:08.169Z,10.00
2023-04-18T10:11:09.801Z,9.90
2023-04-18T10:12:15.005Z,9.90
2023-04-18T10:13:19.306Z,10.00
2023-04-18T10:14:22.910Z,10.00
2023-04-18T10:15:26.708Z,9.90
2023-04-18T10:16:30.121Z,9.90
2023-04-18T10:17:52.571Z,10.00
2023-04-18T10:19:26.194Z,10.10
2023-04-18T10:20:29.746Z,10.10
2023-04-18T10:21:31.600Z,10.10
2023-04-18T10:22:33.485Z,10.20
2023-04-18T10:23:37.691Z,10.30
2023-04-18T10:24:49.694Z,10.30
2023-04-18T10:25:51.484Z,10.30
2023-04-18T10:26:53.123Z,10.30
2023-04-18T10:27:57.668Z,10.40
2023-04-18T10:28:59.489Z,10.40
2023-04-18T10:30:00.955Z,10.30
2023-04-18T10:31:04.125Z,10.30
2023-04-18T10:32:07.265Z,10.40
2023-04-18T10:33:33.492Z,10.40
2023-04-18T10:34:37.765Z,10.40
2023-04-18T10:35:55.684Z,10.40
2023-04-18T10:37:07.186Z,10.30
2023-04-18T10:38:17.398Z,10.30
2023-04-18T10:39:25.097Z,10.10
2023-04-18T10:40:35.660Z,10.10
2023-04-18T10:41:50.574Z,10.00
2023-04-18T10:42:52.410Z,10.00
2023-04-18T10:44:09.544Z,10.00
2023-04-18T10:45:21.038Z,9.90
2023-04-18T10:46:31.857Z,9.80
2023-04-18T10:47:34.573Z,9.80
2023-04-18T10:48:39.047Z,9.90
2023-04-18T10:49:53.650Z,9.70
2023-04-18T10:51:21.030Z,9.80
2023-04-18T10:52:22.645Z,9.80
2023-04-18T10:53:24.384Z,9.80
2023-04-18T10:54:40.678Z,9.80
2023-04-18T10:55:50.882Z,9.80
2023-04-18T10:56:56.802Z,9.80
2023-04-18T10:57:59.455Z,9.80
2023-04-18T10:59:03.204Z,9.80
2023-04-18T11:00:06.054Z,9.90
2023-04-18T11:01:11.188Z,9.90
2023-04-18T11:02:33.394Z,10.00
2023-04-18T11:03:38.069Z,10.10
2023-04-18T11:04:40.673Z,10.20
2023-04-18T11:05:43.166Z,10.30
2023-04-18T11:06:54.968Z,10.30
2023-04-18T11:07:56.469Z,10.30
2023-04-18T11:09:13.838Z,10.30
2023-04-18T11:10:24.562Z,10.30
2023-04-18T11:11:26.417Z,10.30
2023-04-18T11:12:37.219Z,10.40
2023-04-18T11:13:57.288Z,10.30
2023-04-18T11:14:59.601Z,10.30
2023-04-18T11:16:01.248Z,10.40
2023-04-18T11:17:19.261Z,10.40
2023-04-18T11:18:20.704Z,10.30
2023-04-18T11:19:26.602Z,10.30
2023-04-18T11:20:30.211Z,10.40
2023-04-18T11:21:32.148Z,10.40
2023-04-18T11:22:33.693Z,10.60
2023-04-18T11:23:35.383Z,10.50
2023-04-18T11:24:37.139Z,10.60
2023-04-18T11:25:40.588Z,10.70
2023-04-18T11:26:44.591Z,10.70
2023-04-18T11:27:48.048Z,10.70
2023-04-18T11:28:56.066Z,10.70
2023-04-18T11:29:57.489Z,10.80
2023-04-18T11:31:00.640Z,10.90
2023-04-18T11:32:02.261Z,10.90
2023-04-18T11:33:13.953Z,11.00
2023-04-18T11:34:15.828Z,11.10
2023-04-18T11:35:18.016Z,11.20
2023-04-18T11:36:19.688Z,11.20
2023-04-18T11:37:22.341Z,11.20
2023-04-18T11:38:31.188Z,11.20
2023-04-18T11:39:42.596Z,11.20
2023-04-18T11:40:51.014Z,11.10
2023-04-18T11:41:53.199Z,11.10
2023-04-18T11:42:55.389Z,11.10
2023-04-18T11:43:56.905Z,11.30
2023-04-18T11:44:58.314Z,11.40
2023-04-18T11:46:00.222Z,11.50
2023-04-18T11:47:01.990Z,11.50
2023-04-18T11:48:03.868Z,11.50
2023-04-18T11:49:05.493Z,11.50
2023-04-18T11:50:08.343Z,11.50
2023-04-18T11:51:36.917Z,11.50
2023-04-18T11:52:41.005Z,11.60
2023-04-18T11:53:42.503Z,11.60
2023-04-18T11:54:45.367Z,11.60
2023-04-18T11:55:56.080Z,11.40
2023-04-18T11:56:57.752Z,11.50
2023-04-18T11:58:01.455Z,11.50
2023-04-18T11:59:09.167Z,11.50
2023-04-18T12:00:12.364Z,11.50
2023-04-18T12:01:20.995Z,11.50
2023-04-18T12:02:26.281Z,11.60
2023-04-18T12:03:29.713Z,11.40
2023-04-18T12:04:57.048Z,11.40
2023-04-18T12:06:00.699Z,11.50
2023-04-18T12:07:02.584Z,11.50
2023-04-18T12:08:14.311Z,11.60
2023-04-18T12:09:17.010Z,11.60
2023-04-18T12:10:29.419Z,11.60
2023-04-18T12:11:31.398Z,11.70
2023-04-18T12:12:33.289Z,11.70
2023-04-18T12:13:34.739Z,11.80
2023-04-18T12:14:36.676Z,11.90
2023-04-18T12:15:44.561Z,11.90
2023-04-18T12:16:46.937Z,11.90
2023-04-18T12:17:48.625Z,11.90
2023-04-18T12:18:50.165Z,11.90
2023-04-18T12:19:53.831Z,12.00
2023-04-18T12:20:55.552Z,12.10
2023-04-18T12:22:01.042Z,12.10
2023-04-18T12:23:03.582Z,12.20
2023-04-18T12:24:18.232Z,12.30
2023-04-18T12:25:27.779Z,12.50
2023-04-18T12:26:29.369Z,12.50
2023-04-18T12:27:48.287Z,12.40
2023-04-18T12:28:56.132Z,12.50
2023-04-18T12:29:57.520Z,12.60
2023-04-18T12:30:59.159Z,12.60
2023-04-18T12:32:00.659Z,12.60
2023-04-18T12:33:03.180Z,12.60
2023-04-18T12:34:04.606Z,12.60
2023-04-18T12:35:07.620Z,12.60
2023-04-18T12:36:10.410Z,12.70
2023-04-18T12:37:11.818Z,12.70
2023-04-18T12:38:13.360Z,12.70
2023-04-18T12:39:15.103Z,12.70
2023-04-18T12:40:19.150Z,12.70
2023-04-18T12:41:20.805Z,12.80
2023-04-18T12:42:22.201Z,12.80
2023-04-18T12:43:23.626Z,12.70
2023-04-18T12:44:25.479Z,12.60
2023-04-18T12:45:27.196Z,12.60
2023-04-18T12:46:28.696Z,12.70
2023-04-18T12:47:30.216Z,12.80
2023-04-18T12:48:31.669Z,12.90
2023-04-18T12:49:33.034Z,12.90
2023-04-18T12:50:34.866Z,13.10
2023-04-18T12:51:36.256Z,13.30
2023-04-18T12:52:39.519Z,13.40
2023-04-18T12:53:40.956Z,13.40
2023-04-18T12:54:42.328Z,13.20
2023-04-18T12:55:44.333Z,13.20
2023-04-18T12:56:46.543Z,13.20
2023-04-18T12:57:48.271Z,13.20
2023-04-18T12:58:49.741Z,13.20
2023-04-18T12:59:51.366Z,13.30
2023-04-18T13:00:52.803Z,13.40
2023-04-18T13:01:54.293Z,13.30
2023-04-18T13:02:56.355Z,13.20
2023-04-18T13:04:10.835Z,13.20
2023-04-18T13:05:16.108Z,13.20
2023-04-18T13:06:17.784Z,13.20
2023-04-18T13:07:19.608Z,13.00
2023-04-18T13:08:21.140Z,13.10
2023-04-18T13:09:22.525Z,13.20
2023-04-18T13:10:25.230Z,13.20
2023-04-18T13:11:28.592Z,13.20
2023-04-18T13:12:30.800Z,13.20
2023-04-18T13:13:34.464Z,13.20
2023-04-18T13:14:37.087Z,13.30
2023-04-18T13:15:38.688Z,13.40
2023-04-18T13:16:42.469Z,13.50
2023-04-18T13:17:46.070Z,13.70
2023-04-18T13:18:47.522Z,13.70
2023-04-18T13:19:49.284Z,13.50
2023-04-18T13:20:50.667Z,13.40
2023-04-18T13:21:53.333Z,13.50
2023-04-18T13:22:55.269Z,13.50
2023-04-18T13:23:56.676Z,13.60
2023-04-18T13:24:58.181Z,13.50
2023-04-18T13:25:59.741Z,13.60
2023-04-18T13:27:02.353Z,13.70
2023-04-18T13:28:03.800Z,13.70
2023-04-18T13:29:05.616Z,13.70
2023-04-18T13:30:08.519Z,13.80
2023-04-18T13:31:09.874Z,13.90
2023-04-18T13:32:11.814Z,13.90
2023-04-18T13:33:13.348Z,14.00
2023-04-18T13:34:15.059Z,14.10
2023-04-18T13:35:16.486Z,14.10
2023-04-18T13:36:17.981Z,14.00
2023-04-18T13:37:19.905Z,13.90
2023-04-18T13:38:21.338Z,13.80
2023-04-18T13:39:24.313Z,13.90
2023-04-18T13:40:26.426Z,13.90
2023-04-18T13:41:28.933Z,14.00
2023-04-18T13:42:30.430Z,13.90
2023-04-18T13:43:31.919Z,13.90
2023-04-18T13:44:37.802Z,13.90
2023-04-18T13:45:39.196Z,14.00
2023-04-18T13:46:40.978Z,14.10
2023-04-18T13:47:42.617Z,14.20
2023-04-18T13:48:44.144Z,14.30
2023-04-18T13:49:46.030Z,14.40
2023-04-18T13:50:48.306Z,14.40
2023-04-18T13:51:53.311Z,14.60
2023-04-18T13:52:55.007Z,14.70
2023-04-18T13:53:56.381Z,14.60
2023-04-18T13:54:57.793Z,14.60
2023-04-18T13:56:01.218Z,14.50
2023-04-18T13:57:03.249Z,14.40
2023-04-18T13:58:04.661Z,14.50
2023-04-18T13:59:06.261Z,14.60
2023-04-18T14:00:09.209Z,14.80